createdAt,value
2023-07-15T00:00:24.505Z,22.73
2023-07-15T00:02:53.203Z,22.68
2023-07-15T00:05:25.268Z,22.63
2023-07-15T00:07:54.984Z,22.60
2023-07-15T00:10:24.546Z,22.54
2023-07-15T00:12:52.889Z,22.50
2023-07-15T00:15:23.996Z,22.44
2023-07-15T00:17:52.648Z,22.40
2023-07-15T00:20:21.125Z,22.35
2023-07-15T00:22:50.456Z,22.32
2023-07-15T00:25:22.237Z,22.27
2023-07-15T00:27:51.039Z,22.24
2023-07-15T00:30:21.349Z,22.19
2023-07-15T00:32:54.303Z,22.15
2023-07-15T00:35:29.809Z,22.11
2023-07-15T00:37:59.555Z,22.05
2023-07-15T00:40:29.750Z,22.01
2023-07-15T00:43:53.986Z,21.93
2023-07-15T00:47:00.184Z,21.85
2023-07-15T00:49:31.043Z,21.82
2023-07-15T00:52:04.637Z,21.77
2023-07-15T00:54:39.625Z,21.74
2023-07-15T00:57:10.514Z,21.72
2023-07-15T00:59:40.637Z,21.71
2023-07-15T01:02:11.553Z,21.68
2023-07-15T01:04:42.964Z,21.65
2023-07-15T01:07:11.268Z,21.61
2023-07-15T01:09:40.151Z,21.58
2023-07-15T01:12:10.085Z,21.56
2023-07-15T01:14:42.324Z,21.54
2023-07-15T01:17:12.018Z,21.50
2023-07-15T01:19:40.342Z,21.46
2023-07-15T01:22:09.372Z,21.43
2023-07-15T01:24:41.828Z,21.38
2023-07-15T01:27:11.028Z,21.36
2023-07-15T01:29:39.407Z,21.33
2023-07-15T01:32:08.536Z,21.29
2023-07-15T01:34:42.494Z,21.26
2023-07-15T01:37:10.951Z,21.23
2023-07-15T01:39:40.924Z,21.18
2023-07-15T01:42:09.491Z,21.16
2023-07-15T01:44:37.977Z,21.14
2023-07-15T01:47:07.048Z,21.12
2023-07-15T01:49:35.444Z,21.09
2023-07-15T01:52:04.090Z,21.05
2023-07-15T01:54:32.403Z,21.00
2023-07-15T01:57:04.956Z,20.99
2023-07-15T01:59:33.326Z,20.94
2023-07-15T02:02:01.728Z,20.92
2023-07-15T02:04:30.095Z,20.89
2023-07-15T02:06:58.473Z,20.87
2023-07-15T02:09:26.797Z,20.83
2023-07-15T02:11:55.110Z,20.82
2023-07-15T02:14:24.808Z,20.80
2023-07-15T02:16:53.803Z,20.78
2023-07-15T02:19:22.345Z,20.75
2023-07-15T02:21:50.727Z,20.74
2023-07-15T02:24:21.815Z,20.70
2023-07-15T02:26:50.157Z,20.69
2023-07-15T02:29:18.992Z,20.68
2023-07-15T02:31:48.679Z,20.65
2023-07-15T02:34:17.287Z,20.63
2023-07-15T02:36:48.392Z,20.60
2023-07-15T02:39:17.859Z,20.58
2023-07-15T02:41:47.892Z,20.56
2023-07-15T02:44:19.302Z,20.54
2023-07-15T02:46:49.512Z,20.51
2023-07-15T02:49:18.209Z,20.47
2023-07-15T02:51:46.735Z,20.43
2023-07-15T02:54:15.046Z,20.40
2023-07-15T02:56:43.543Z,20.37
2023-07-15T02:59:11.912Z,20.35
2023-07-15T03:01:40.286Z,20.33
2023-07-15T03:04:09.975Z,20.30
2023-07-15T03:06:38.400Z,20.27
2023-07-15T03:09:07.179Z,20.25
2023-07-15T03:11:35.540Z,20.23
2023-07-15T03:14:03.833Z,20.23
2023-07-15T03:16:32.176Z,20.19
2023-07-15T03:19:00.514Z,20.18
2023-07-15T03:21:30.193Z,20.16
2023-07-15T03:23:58.759Z,20.15
2023-07-15T03:26:27.071Z,20.14
2023-07-15T03:28:59.105Z,20.11
2023-07-15T03:31:27.514Z,20.10
2023-07-15T03:33:55.852Z,20.07
2023-07-15T03:36:25.997Z,20.05
2023-07-15T03:38:55.684Z,20.04
2023-07-15T03:41:24.008Z,20.04
2023-07-15T03:43:52.476Z,20.05
2023-07-15T03:46:20.836Z,20.04
2023-07-15T03:48:49.174Z,20.04
2023-07-15T03:51:17.538Z,20.04
2023-07-15T03:53:45.864Z,20.03
2023-07-15T03:56:15.762Z,20.03
2023-07-15T03:58:48.932Z,20.02
2023-07-15T04:01:17.364Z,20.02
2023-07-15T04:03:46.183Z,20.02
2023-07-15T04:06:14.771Z,20.02
2023-07-15T04:08:43.246Z,20.03
2023-07-15T04:11:12.152Z,20.04
2023-07-15T04:13:41.892Z,20.05
2023-07-15T04:16:10.230Z,20.06
2023-07-15T04:18:38.585Z,20.07
2023-07-15T04:21:12.935Z,20.08
2023-07-15T04:23:41.267Z,20.09
2023-07-15T04:26:12.596Z,20.11
2023-07-15T04:28:42.455Z,20.12
2023-07-15T04:31:10.865Z,20.14
2023-07-15T04:33:39.209Z,20.17
2023-07-15T04:36:08.107Z,20.19
2023-07-15T04:38:36.406Z,20.21
2023-07-15T04:41:04.762Z,20.25
2023-07-15T04:43:33.076Z,20.29
2023-07-15T04:46:03.271Z,20.34
2023-07-15T04:48:31.594Z,20.38
2023-07-15T04:51:00.979Z,20.41
2023-07-15T04:53:29.606Z,20.46
2023-07-15T04:55:58.033Z,20.51
2023-07-15T04:58:26.684Z,20.56
2023-07-15T05:00:55.006Z,20.61
2023-07-15T05:03:24.745Z,20.65
2023-07-15T05:05:53.166Z,20.70
2023-07-15T05:08:23.640Z,20.74
2023-07-15T05:10:53.159Z,20.80
2023-07-15T05:13:21.881Z,20.84
2023-07-15T05:15:50.264Z,20.88
2023-07-15T05:18:18.998Z,20.93
2023-07-15T05:20:51.772Z,20.97
2023-07-15T05:23:20.042Z,21.04
2023-07-15T05:25:48.371Z,21.09
2023-07-15T05:28:19.388Z,21.15
2023-07-15T05:30:47.677Z,21.23
2023-07-15T05:33:15.983Z,21.31
2023-07-15T05:35:44.275Z,21.38
2023-07-15T05:38:13.927Z,21.46
2023-07-15T05:40:42.999Z,21.55
2023-07-15T05:43:11.913Z,21.63
2023-07-15T05:45:43.396Z,21.71
2023-07-15T05:48:11.896Z,21.80
2023-07-15T05:50:40.673Z,21.89
2023-07-15T05:53:09.286Z,21.97
2023-07-15T05:55:41.832Z,22.04
2023-07-15T05:58:11.843Z,22.13
2023-07-15T06:00:40.988Z,22.21
2023-07-15T06:03:10.057Z,22.30
2023-07-15T06:05:38.943Z,22.40
2023-07-15T06:08:07.279Z,22.51
2023-07-15T06:10:35.590Z,22.63
2023-07-15T06:13:05.330Z,22.76
2023-07-15T06:15:33.698Z,22.90
2023-07-15T06:18:03.026Z,23.04
2023-07-15T06:20:31.391Z,23.20
2023-07-15T06:23:02.401Z,23.37
2023-07-15T06:25:33.302Z,23.52
2023-07-15T06:28:01.650Z,23.68
2023-07-15T06:30:31.412Z,23.84
2023-07-15T06:32:59.907Z,24.00
2023-07-15T06:35:30.873Z,24.16
2023-07-15T06:37:59.310Z,24.31
2023-07-15T06:40:28.079Z,24.47
2023-07-15T06:42:56.422Z,24.62
2023-07-15T06:45:38.266Z,24.80
2023-07-15T06:48:07.265Z,24.98
2023-07-15T06:50:37.832Z,25.15
2023-07-15T06:53:06.277Z,25.30
2023-07-15T06:55:39.354Z,25.48
2023-07-15T06:58:08.506Z,25.65
2023-07-15T07:00:38.215Z,25.84
2023-07-15T07:03:06.659Z,25.99
2023-07-15T07:05:35.068Z,26.17
2023-07-15T07:08:03.922Z,26.32
2023-07-15T07:10:32.252Z,26.46
2023-07-15T07:13:00.560Z,26.62
2023-07-15T07:15:31.040Z,26.79
2023-07-15T07:18:01.159Z,26.95
2023-07-15T07:20:29.532Z,27.12
2023-07-15T07:22:57.993Z,27.26
2023-07-15T07:25:26.497Z,27.42
2023-07-15T07:27:54.786Z,27.59
2023-07-15T07:30:23.172Z,27.73
2023-07-15T07:32:51.546Z,27.90
2023-07-15T07:35:21.497Z,28.02
2023-07-15T07:37:51.349Z,28.16
2023-07-15T07:40:19.898Z,28.33
2023-07-15T07:42:48.189Z,28.49
2023-07-15T07:45:18.043Z,28.64
2023-07-15T07:47:46.580Z,28.82
2023-07-15T07:50:15.047Z,28.98
2023-07-15T07:52:44.725Z,29.13
2023-07-15T07:55:13.063Z,29.29
2023-07-15T07:57:41.370Z,29.46
2023-07-15T08:00:11.134Z,29.63
2023-07-15T08:02:39.485Z,29.79
2023-07-15T08:05:09.745Z,29.96
2023-07-15T08:07:38.144Z,30.12
2023-07-15T08:10:09.810Z,30.32
2023-07-15T08:12:38.143Z,30.47
2023-07-15T08:15:09.306Z,30.66
2023-07-15T08:17:38.625Z,30.85
2023-07-15T08:20:10.300Z,31.04
2023-07-15T08:22:39.030Z,31.23
2023-07-15T08:25:10.091Z,31.40
2023-07-15T08:27:38.508Z,31.59
2023-07-15T08:30:08.643Z,31.77
2023-07-15T08:32:37.091Z,31.94
2023-07-15T08:35:06.822Z,32.10
2023-07-15T08:37:35.155Z,32.28
2023-07-15T08:40:04.198Z,32.43
2023-07-15T08:42:37.598Z,32.63
2023-07-15T08:45:07.539Z,32.82
2023-07-15T08:47:35.970Z,33.01
2023-07-15T08:50:07.178Z,33.20
2023-07-15T08:52:37.791Z,33.40
2023-07-15T08:55:07.685Z,33.59
2023-07-15T08:57:37.893Z,33.76
2023-07-15T09:00:11.603Z,33.96
2023-07-15T09:02:40.562Z,34.11
2023-07-15T09:05:10.466Z,34.24
2023-07-15T09:07:53.123Z,34.39
2023-07-15T09:10:24.255Z,34.57
2023-07-15T09:12:57.776Z,34.74
2023-07-15T09:15:26.438Z,34.91
2023-07-15T09:17:56.682Z,35.04
2023-07-15T09:20:28.400Z,35.22
2023-07-15T09:22:58.553Z,35.38
2023-07-15T09:25:28.002Z,35.54
2023-07-15T09:27:57.813Z,35.65
2023-07-15T09:30:26.399Z,35.79
2023-07-15T09:32:54.871Z,35.90
2023-07-15T09:35:23.536Z,36.02
2023-07-15T09:37:53.160Z,36.13
2023-07-15T09:40:21.663Z,36.23
2023-07-15T09:42:55.048Z,36.35
2023-07-15T09:45:36.888Z,36.45
2023-07-15T09:48:08.335Z,36.55
2023-07-15T09:50:38.650Z,36.64
2023-07-15T09:53:07.823Z,36.76
2023-07-15T09:55:39.562Z,36.89
2023-07-15T09:58:24.646Z,37.01
2023-07-15T10:00:58.134Z,37.13
2023-07-15T10:03:35.387Z,37.26
2023-07-15T10:06:05.385Z,37.31
2023-07-15T10:08:34.102Z,37.37
2023-07-15T10:11:03.313Z,37.46
2023-07-15T10:13:34.554Z,37.54
2023-07-15T10:16:05.218Z,37.66
2023-07-15T10:18:33.862Z,37.74
2023-07-15T10:21:06.412Z,37.81
2023-07-15T10:23:40.739Z,37.91
2023-07-15T10:26:11.373Z,37.99
2023-07-15T10:28:42.450Z,38.09
2023-07-15T10:31:14.765Z,38.17
2023-07-15T10:33:57.841Z,38.24
2023-07-15T10:36:45.791Z,38.36
2023-07-15T10:39:16.212Z,38.50
2023-07-15T10:41:46.938Z,38.48
2023-07-15T10:44:22.711Z,38.50
2023-07-15T10:46:54.741Z,38.57
2023-07-15T10:49:23.713Z,38.63
2023-07-15T10:51:55.638Z,38.73
2023-07-15T10:54:26.095Z,38.82
2023-07-15T10:56:54.973Z,38.90
2023-07-15T10:59:25.976Z,38.99
2023-07-15T11:01:55.704Z,39.02
2023-07-15T11:04:24.043Z,39.10
2023-07-15T11:06:53.379Z,39.14
2023-07-15T11:09:23.732Z,39.21
2023-07-15T11:11:52.678Z,39.33
2023-07-15T11:14:23.140Z,39.31
2023-07-15T11:16:57.804Z,39.30
2023-07-15T11:19:28.457Z,39.31
2023-07-15T11:21:59.468Z,39.37
2023-07-15T11:24:29.685Z,39.38
2023-07-15T11:27:02.659Z,39.38
2023-07-15T11:29:31.342Z,39.42
2023-07-15T11:32:02.509Z,39.40
2023-07-15T11:34:31.950Z,39.43
2023-07-15T11:37:04.038Z,39.45
2023-07-15T11:39:32.582Z,39.46
2023-07-15T11:42:00.915Z,39.51
2023-07-15T11:44:29.319Z,39.44
2023-07-15T11:46:58.373Z,39.36
2023-07-15T11:49:28.088Z,39.44
2023-07-15T11:51:58.397Z,39.50
2023-07-15T11:54:26.752Z,39.51
2023-07-15T11:56:59.393Z,39.53
2023-07-15T11:59:30.937Z,39.58
2023-07-15T12:02:00.529Z,39.59
2023-07-15T12:04:31.346Z,39.61
2023-07-15T12:07:00.520Z,39.68
2023-07-15T12:09:28.836Z,39.76
2023-07-15T12:11:57.280Z,39.83
2023-07-15T12:14:26.408Z,39.90
2023-07-15T12:17:00.261Z,39.93
2023-07-15T12:19:32.857Z,39.95
2023-07-15T12:22:01.305Z,40.01
2023-07-15T12:24:29.591Z,40.00
2023-07-15T12:26:57.884Z,39.94
2023-07-15T12:29:26.198Z,39.86
2023-07-15T12:31:54.530Z,39.92
2023-07-15T12:34:23.116Z,39.93
2023-07-15T12:36:53.246Z,39.87
2023-07-15T12:39:22.832Z,39.88
2023-07-15T12:41:51.207Z,39.94
2023-07-15T12:44:21.907Z,40.01
2023-07-15T12:46:50.257Z,40.08
2023-07-15T12:49:18.659Z,40.11
2023-07-15T12:51:46.963Z,40.17
2023-07-15T12:54:16.830Z,40.19
2023-07-15T12:56:45.086Z,40.23
2023-07-15T12:59:13.412Z,40.25
2023-07-15T13:01:41.753Z,40.29
2023-07-15T13:04:10.188Z,40.29
2023-07-15T13:06:38.577Z,40.31
2023-07-15T13:09:07.010Z,40.34
2023-07-15T13:11:38.015Z,40.35
2023-07-15T13:14:09.042Z,40.35
2023-07-15T13:16:37.480Z,40.27
2023-07-15T13:19:05.833Z,40.29
2023-07-15T13:21:34.293Z,40.36
2023-07-15T13:24:02.579Z,40.34
2023-07-15T13:26:30.901Z,40.35
2023-07-15T13:29:00.555Z,40.38
2023-07-15T13:31:29.003Z,40.39
2023-07-15T13:33:57.360Z,40.35
2023-07-15T13:36:25.732Z,40.40
2023-07-15T13:38:58.679Z,40.44
2023-07-15T13:41:28.916Z,40.47
2023-07-15T13:44:02.908Z,40.54
2023-07-15T13:46:32.686Z,40.52
2023-07-15T13:49:01.041Z,40.51
2023-07-15T13:51:29.372Z,40.54
2023-07-15T13:54:00.716Z,40.53
2023-07-15T13:56:29.022Z,40.58
2023-07-15T13:58:57.348Z,40.62
2023-07-15T14:01:25.861Z,40.67
2023-07-15T14:03:55.654Z,40.70
2023-07-15T14:06:24.113Z,40.68
2023-07-15T14:08:52.495Z,40.68
2023-07-15T14:11:20.899Z,40.68
2023-07-15T14:13:49.270Z,40.69
2023-07-15T14:16:17.720Z,40.69
2023-07-15T14:18:47.348Z,40.68
2023-07-15T14:21:17.329Z,40.69
2023-07-15T14:23:46.063Z,40.72
2023-07-15T14:26:14.946Z,40.76
2023-07-15T14:28:43.455Z,40.82
2023-07-15T14:31:11.921Z,40.86
2023-07-15T14:33:40.466Z,40.89
2023-07-15T14:36:08.924Z,40.92
2023-07-15T14:38:38.676Z,40.85
2023-07-15T14:41:07.072Z,40.78
2023-07-15T14:43:35.496Z,40.75
2023-07-15T14:46:08.477Z,40.70
2023-07-15T14:48:39.949Z,40.70
2023-07-15T14:51:08.781Z,40.69
2023-07-15T14:53:38.522Z,40.72
2023-07-15T14:56:07.186Z,40.70
2023-07-15T14:58:38.475Z,40.71
2023-07-15T15:01:06.914Z,40.73
2023-07-15T15:03:35.366Z,40.80
2023-07-15T15:06:03.724Z,40.86
2023-07-15T15:08:32.149Z,40.87
2023-07-15T15:11:01.911Z,40.90
2023-07-15T15:13:30.320Z,40.92
2023-07-15T15:15:58.742Z,40.90
2023-07-15T15:18:27.216Z,40.84
2023-07-15T15:20:55.589Z,40.81
2023-07-15T15:23:25.120Z,40.80
2023-07-15T15:25:53.522Z,40.75
2023-07-15T15:28:26.126Z,40.73
2023-07-15T15:30:56.264Z,40.66
2023-07-15T15:33:24.916Z,40.67
2023-07-15T15:35:53.411Z,40.68
2023-07-15T15:38:26.446Z,40.71
2023-07-15T15:40:54.924Z,40.70
2023-07-15T15:43:25.523Z,40.73
2023-07-15T15:45:54.304Z,40.74
2023-07-15T15:48:25.638Z,40.75
2023-07-15T15:50:54.659Z,40.77
2023-07-15T15:53:24.694Z,40.78
2023-07-15T15:55:53.146Z,40.79
2023-07-15T15:58:21.563Z,40.79
2023-07-15T16:00:51.354Z,40.75
2023-07-15T16:03:19.812Z,40.74
2023-07-15T16:05:48.355Z,40.72
2023-07-15T16:08:16.770Z,40.73
2023-07-15T16:10:45.155Z,40.65
2023-07-15T16:13:13.530Z,40.62
2023-07-15T16:15:41.977Z,40.56
2023-07-15T16:18:11.711Z,40.52
2023-07-15T16:20:40.084Z,40.49
2023-07-15T16:23:08.986Z,40.42
2023-07-15T16:25:37.604Z,40.38
2023-07-15T16:28:07.190Z,40.33
2023-07-15T16:30:37.520Z,40.28
2023-07-15T16:33:05.929Z,40.25
2023-07-15T16:35:35.820Z,40.20
2023-07-15T16:38:04.166Z,40.21
2023-07-15T16:40:33.171Z,40.20
2023-07-15T16:43:01.561Z,40.19
2023-07-15T16:45:29.952Z,40.22
2023-07-15T16:47:58.386Z,40.22
2023-07-15T16:50:27.006Z,40.21
2023-07-15T16:52:56.834Z,40.20
2023-07-15T16:55:25.203Z,40.17
2023-07-15T16:57:53.687Z,40.16
2023-07-15T17:00:22.068Z,40.11
2023-07-15T17:02:50.494Z,40.08
2023-07-15T17:05:19.149Z,40.06
2023-07-15T17:07:47.540Z,40.02
2023-07-15T17:10:17.313Z,40.00
2023-07-15T17:12:45.786Z,39.91
2023-07-15T17:15:14.178Z,39.85
2023-07-15T17:17:42.591Z,39.79
2023-07-15T17:20:12.208Z,39.74
2023-07-15T17:22:40.648Z,39.67
2023-07-15T17:25:09.822Z,39.60
2023-07-15T17:27:39.577Z,39.55
2023-07-15T17:30:09.895Z,39.49
2023-07-15T17:32:38.321Z,39.42
2023-07-15T17:35:07.829Z,39.35
2023-07-15T17:37:36.183Z,39.25
2023-07-15T17:40:06.383Z,39.17
2023-07-15T17:42:34.725Z,39.08
2023-07-15T17:45:05.051Z,38.97
2023-07-15T17:47:34.820Z,38.85
2023-07-15T17:50:06.222Z,38.77
2023-07-15T17:52:34.610Z,38.68
2023-07-15T17:55:10.154Z,38.55
2023-07-15T17:57:49.843Z,38.42
2023-07-15T18:00:20.853Z,38.31
2023-07-15T18:02:50.275Z,38.21
2023-07-15T18:05:19.413Z,38.10
2023-07-15T18:07:47.830Z,37.97
2023-07-15T18:10:16.297Z,37.87
2023-07-15T18:12:45.146Z,37.75
2023-07-15T18:15:13.573Z,37.64
2023-07-15T18:17:43.554Z,37.53
2023-07-15T18:20:12.559Z,37.41
2023-07-15T18:22:41.051Z,37.30
2023-07-15T18:25:10.017Z,37.17
2023-07-15T18:27:38.733Z,37.04
2023-07-15T18:30:08.519Z,36.91
2023-07-15T18:32:37.121Z,36.79
2023-07-15T18:35:08.403Z,36.65
2023-07-15T18:37:36.811Z,36.52
2023-07-15T18:40:06.788Z,36.41
2023-07-15T18:42:35.170Z,36.30
2023-07-15T18:45:03.672Z,36.21
2023-07-15T18:47:32.011Z,36.12
2023-07-15T18:50:00.371Z,36.01
2023-07-15T18:52:30.538Z,35.91
2023-07-15T18:54:58.934Z,35.82
2023-07-15T18:57:27.272Z,35.73
2023-07-15T18:59:55.691Z,35.61
2023-07-15T19:02:24.116Z,35.52
2023-07-15T19:04:52.598Z,35.40
2023-07-15T19:07:20.954Z,35.31
2023-07-15T19:09:50.645Z,35.22
2023-07-15T19:12:19.008Z,35.11
2023-07-15T19:14:47.377Z,35.00
2023-07-15T19:17:16.228Z,34.87
2023-07-15T19:19:44.739Z,34.76
2023-07-15T19:22:13.213Z,34.64
2023-07-15T19:24:41.562Z,34.51
2023-07-15T19:27:11.506Z,34.38
2023-07-15T19:29:39.969Z,34.28
2023-07-15T19:32:09.362Z,34.17
2023-07-15T19:34:37.754Z,34.03
2023-07-15T19:37:06.982Z,33.93
2023-07-15T19:39:35.331Z,33.82
2023-07-15T19:42:03.689Z,33.71
2023-07-15T19:44:33.378Z,33.63
2023-07-15T19:47:01.813Z,33.51
2023-07-15T19:49:30.202Z,33.41
2023-07-15T19:51:58.557Z,33.34
2023-07-15T19:54:27.031Z,33.27
2023-07-15T19:56:55.596Z,33.20
2023-07-15T19:59:25.535Z,33.13
2023-07-15T20:01:55.357Z,33.06
2023-07-15T20:04:23.913Z,33.03
2023-07-15T20:06:55.282Z,32.98
2023-07-15T20:09:24.343Z,32.96
2023-07-15T20:11:52.740Z,32.92
2023-07-15T20:14:21.077Z,32.86
2023-07-15T20:16:50.226Z,32.81
2023-07-15T20:19:20.660Z,32.74
2023-07-15T20:21:49.017Z,32.68
2023-07-15T20:24:17.366Z,32.61
2023-07-15T20:26:45.700Z,32.55
2023-07-15T20:29:14.081Z,32.48
2023-07-15T20:31:42.497Z,32.40
2023-07-15T20:34:12.084Z,32.33
2023-07-15T20:36:41.804Z,32.24
2023-07-15T20:39:10.277Z,32.18
2023-07-15T20:41:38.800Z,32.10
2023-07-15T20:44:07.222Z,32.04
2023-07-15T20:46:35.617Z,31.99
2023-07-15T20:49:03.962Z,31.92
2023-07-15T20:51:32.291Z,31.85
2023-07-15T20:54:01.996Z,31.79
2023-07-15T20:56:30.373Z,31.72
2023-07-15T20:58:58.793Z,31.67
2023-07-15T21:01:27.386Z,31.61
2023-07-15T21:03:55.837Z,31.54
2023-07-15T21:06:24.248Z,31.49
2023-07-15T21:08:52.611Z,31.41
2023-07-15T21:11:22.388Z,31.35
2023-07-15T21:13:51.941Z,31.29
2023-07-15T21:16:26.259Z,31.21
2023-07-15T21:18:54.613Z,31.16
2023-07-15T21:21:23.164Z,31.09
2023-07-15T21:23:53.952Z,31.02
2023-07-15T21:26:23.733Z,31.01
2023-07-15T21:28:52.064Z,30.98
2023-07-15T21:31:20.442Z,30.97
2023-07-15T21:33:48.831Z,30.95
2023-07-15T21:36:17.682Z,30.93
2023-07-15T21:38:47.118Z,30.93
2023-07-15T21:41:15.507Z,30.90
2023-07-15T21:43:45.435Z,30.87
2023-07-15T21:46:14.249Z,30.84
2023-07-15T21:48:43.167Z,30.82
2023-07-15T21:51:11.537Z,30.75
2023-07-15T21:53:39.902Z,30.71
2023-07-15T21:56:09.258Z,30.67
2023-07-15T21:58:38.502Z,30.62
2023-07-15T22:01:08.382Z,30.55
2023-07-15T22:03:36.816Z,30.50
2023-07-15T22:06:05.397Z,30.47
2023-07-15T22:08:34.705Z,30.41
2023-07-15T22:11:03.089Z,30.37
2023-07-15T22:13:34.480Z,30.31
2023-07-15T22:16:02.963Z,30.27
2023-07-15T22:18:40.494Z,30.21
2023-07-15T22:21:11.749Z,30.15
2023-07-15T22:23:40.110Z,30.09
2023-07-15T22:26:09.526Z,30.04
2023-07-15T22:28:38.138Z,29.98
2023-07-15T22:31:06.542Z,29.93
2023-07-15T22:33:36.387Z,29.87
2023-07-15T22:36:04.988Z,29.82
2023-07-15T22:38:33.299Z,29.77
2023-07-15T22:41:02.205Z,29.73
2023-07-15T22:43:32.717Z,29.67
2023-07-15T22:46:03.969Z,29.63
2023-07-15T22:48:32.342Z,29.58
2023-07-15T22:51:02.199Z,29.53
2023-07-15T22:53:30.484Z,29.48
2023-07-15T22:55:58.787Z,29.43
2023-07-15T22:58:27.206Z,29.37
2023-07-15T23:00:57.946Z,29.33
2023-07-15T23:03:37.201Z,29.16
2023-07-15T23:06:07.292Z,29.12
2023-07-15T23:08:35.791Z,29.06
2023-07-15T23:11:04.075Z,29.01
2023-07-15T23:13:33.450Z,28.96
2023-07-15T23:16:17.205Z,28.90
2023-07-15T23:18:50.854Z,28.87
2023-07-15T23:21:20.610Z,28.85
2023-07-15T23:23:48.991Z,28.83
2023-07-15T23:26:17.481Z,28.79
2023-07-15T23:28:49.355Z,28.74
2023-07-15T23:31:18.893Z,28.71
2023-07-15T23:33:53.200Z,28.67
2023-07-15T23:36:22.888Z,28.64
2023-07-15T23:38:51.215Z,28.66
2023-07-15T23:41:20.963Z,28.65
2023-07-15T23:43:50.405Z,28.66
2023-07-15T23:46:21.429Z,28.62
2023-07-15T23:48:49.749Z,28.59
2023-07-15T23:51:18.048Z,28.59
2023-07-15T23:53:47.760Z,28.61
2023-07-15T23:56:16.257Z,28.56
2023-07-15T23:58:44.843Z,28.56
